Pagrindinis puslapis
METAR-TAF:

METAR-TAF

Oro uostai :

Golden, Britų Kolumbija, Kanada

platuma: 51-18N, ilguma: 116-59W, Aukštis: 785 m

Dabartinis oras

Ataskaita buvo paskelbta 12 valandos ir 54 minutes, ne 00:00 UTC
Ramus vėjas
Temperatūra -1°C
Drėgmė 64%
Slėgis 1025 hPa
Matomumas: 32.2 km
Išsisklaidę debesys ne aukštis 7700 ft
Su prošvaistėmis ne aukštis 12000 ft

METAR: CYGE 190000Z 00000KT 20SM SCT077 BKN120 M01/M07 A3027 RMK AC4AC1 LAST STFD OBS/NEXT 191400Z SLP298

Laikas: 05:54 (12:54 UTC)


TAF: trūkstamas

Orai ataskaitas ir orų prognozės (METAR, TAF).

turimą stotys yra geltonos ir raudonos taškus žemėlapyje.

Perkelti pele per norėdami pamatyti stoties vardą.

Tada spustelėkite, norėdami matyti oro stebėjimo ir prognozės.

Norėdami pakeisti žemėlapį: spustelėkite ant žalios mygtukų su juodo kryžiaus žemyn,; žalią mygtuką su brūkšneliu, jei norite nutolinti; arba žalių rodyklių gretimoms žemėlapius.


METAR-TAF: